Time;durP1;ratioP1;P1;durP2;ratioP2;P2;SDS_P1;SDS_P2;PMS_P1;PMS_P2;Temp;Humidity;BMP_temperature;BMP_pressure;BME280_temperature;BME280_humidity;BME280_pressure;Samples;Min_cycle;Max_cycle;Signal;HPM_P1;HPM_P2
2022/01/19 00:01:05;;;;;;;17.83;8.47;;;3.50;85.80;;;;;;5051148;28;20766;-74
2022/01/19 00:03:30;;;;;;;17.02;9.15;;;3.40;87.50;;;;;;5033825;28;20394;-74
2022/01/19 00:05:56;;;;;;;14.93;8.65;;;3.40;89.40;;;;;;5052774;28;20381;-74
2022/01/19 00:08:22;;;;;;;14.07;7.88;;;3.40;89.10;;;;;;5052173;28;20518;-74
2022/01/19 00:10:49;;;;;;;13.18;8.13;;;3.40;89.50;;;;;;5034470;28;20491;-73
2022/01/19 00:13:16;;;;;;;15.10;8.18;;;3.30;90.70;;;;;;5052047;28;20409;-75
2022/01/19 00:15:42;;;;;;;11.27;7.55;;;3.20;91.60;;;;;;5034545;28;20451;-74
2022/01/19 00:18:08;;;;;;;15.60;9.07;;;3.30;92.00;;;;;;5052209;28;20382;-75
2022/01/19 00:20:35;;;;;;;11.87;7.80;;;3.30;91.80;;;;;;5052605;28;20388;-75
2022/01/19 00:23:02;;;;;;;14.65;7.90;;;3.40;90.80;;;;;;5051984;28;20499;-74
2022/01/19 00:25:28;;;;;;;12.88;8.48;;;3.50;88.70;;;;;;5052444;28;20488;-75
2022/01/19 00:27:53;;;;;;;13.82;8.20;;;3.50;88.20;;;;;;5037919;28;20397;-74
2022/01/19 00:30:19;;;;;;;12.07;7.80;;;3.60;87.50;;;;;;5062722;28;20484;-75
2022/01/19 00:32:45;;;;;;;17.00;8.00;;;3.50;87.50;;;;;;5059917;28;20417;-74
2022/01/19 00:35:12;;;;;;;13.07;8.57;;;3.50;87.60;;;;;;5052269;28;20436;-74
2022/01/19 00:37:39;;;;;;;13.60;8.90;;;3.50;87.90;;;;;;5054451;28;20539;-74
2022/01/19 00:40:06;;;;;;;12.93;8.20;;;3.60;89.10;;;;;;5036499;28;20398;-74
2022/01/19 00:42:32;;;;;;;14.93;9.63;;;3.70;88.00;;;;;;5055533;28;20546;-74
2022/01/19 00:44:58;;;;;;;12.47;8.23;;;3.70;87.30;;;;;;5056884;28;20898;-75
2022/01/19 00:47:23;;;;;;;12.23;7.60;;;3.70;86.30;;;;;;5056647;28;20893;-74
2022/01/19 00:49:49;;;;;;;12.97;8.50;;;3.80;84.10;;;;;;5058256;28;20405;-75
2022/01/19 00:52:15;;;;;;;11.45;7.90;;;3.90;82.90;;;;;;5057814;28;20413;-74
2022/01/19 00:54:41;;;;;;;11.15;8.25;;;3.90;82.70;;;;;;5061316;28;20385;-74
2022/01/19 00:57:09;;;;;;;12.38;8.55;;;4.00;81.70;;;;;;5066875;28;20465;-74
2022/01/19 00:59:34;;;;;;;10.85;7.90;;;4.00;80.80;;;;;;5066433;28;20392;-74
2022/01/19 01:02:01;;;;;;;12.63;7.90;;;3.90;82.40;;;;;;5054351;28;20404;-74
2022/01/19 01:04:27;;;;;;;11.70;7.38;;;4.00;82.60;;;;;;5036927;28;20385;-75
2022/01/19 01:06:52;;;;;;;12.63;8.00;;;4.20;82.10;;;;;;5036607;28;20401;-74
2022/01/19 01:09:18;;;;;;;12.05;7.55;;;4.10;79.50;;;;;;5053425;28;20471;-73
2022/01/19 01:11:57;;;;;;;13.67;7.80;;;4.00;79.20;;;;;;5053141;28;20461;-73
2022/01/19 01:18:18;;;;;;;12.60;8.43;;;3.90;84.70;;;;;;5051521;28;20739;-73
2022/01/19 01:19:56;;;;;;;12.02;7.70;;;4.00;83.40;;;;;;5050809;28;20393;-74
2022/01/19 01:22:22;;;;;;;9.15;7.70;;;4.30;78.30;;;;;;5051407;28;20867;-74
2022/01/19 01:24:48;;;;;;;9.00;6.85;;;4.30;78.20;;;;;;5050880;28;20393;-74
2022/01/19 01:27:13;;;;;;;11.60;7.83;;;4.20;74.30;;;;;;5051029;28;20385;-74
2022/01/19 01:29:40;;;;;;;13.90;7.33;;;4.20;74.80;;;;;;5051134;28;20397;-74
2022/01/19 01:32:07;;;;;;;10.40;7.80;;;4.10;76.30;;;;;;5051144;28;20398;-74
2022/01/19 01:34:32;;;;;;;9.88;7.97;;;3.90;79.30;;;;;;5033129;28;20393;-74
2022/01/19 01:36:58;;;;;;;10.17;7.30;;;3.70;81.40;;;;;;5032922;28;20404;-74
2022/01/19 01:39:23;;;;;;;10.47;7.83;;;3.70;84.10;;;;;;5033175;28;20488;-74
2022/01/19 01:41:49;;;;;;;14.70;8.47;;;3.60;85.50;;;;;;5051412;28;20396;-74
2022/01/19 01:44:15;;;;;;;11.40;8.10;;;3.60;86.60;;;;;;5051526;28;20396;-75
2022/01/19 01:46:46;;;;;;;10.23;8.05;;;3.60;85.00;;;;;;5051162;28;20389;-72
2022/01/19 01:49:18;;;;;;;12.95;9.00;;;3.60;85.50;;;;;;5050775;28;20468;-73
2022/01/19 01:54:28;;;;;;;14.30;9.25;;;3.50;87.60;;;;;;5050689;28;20488;-73
2022/01/19 01:56:54;;;;;;;12.83;9.53;;;3.40;87.20;;;;;;5050672;28;20488;-72
2022/01/19 01:59:20;;;;;;;14.80;8.60;;;3.40;88.80;;;;;;5047977;28;20396;-73
2022/01/19 02:01:45;;;;;;;12.75;8.43;;;3.40;88.60;;;;;;5051609;28;20457;-72
2022/01/19 02:04:11;;;;;;;12.80;8.13;;;3.50;88.30;;;;;;5050703;28;20385;-73
2022/01/19 02:07:00;;;;;;;14.97;8.83;;;3.50;89.00;;;;;;5051083;28;20385;-72
2022/01/19 02:09:30;;;;;;;14.90;8.97;;;3.60;87.30;;;;;;5050808;28;20939;-74
2022/01/19 02:23:19;;;;;;;13.50;8.90;;;4.30;81.90;;;;;;5034504;28;20426;-72
2022/01/19 02:25:58;;;;;;;12.45;8.15;;;4.40;78.20;;;;;;5036030;28;20475;-73
2022/01/19 02:42:10;;;;;;;11.18;8.77;;;5.20;64.30;;;;;;5054013;28;20455;-74
2022/01/19 02:49:55;;;;;;;11.15;8.90;;;5.20;64.00;;;;;;5053643;28;20443;-73
2022/01/19 02:52:22;;;;;;;17.13;8.80;;;5.20;62.40;;;;;;5056442;28;20408;-74
2022/01/19 02:54:48;;;;;;;13.63;9.48;;;5.10;63.40;;;;;;5036000;28;20499;-73
2022/01/19 02:57:15;;;;;;;11.80;9.07;;;5.10;63.20;;;;;;5053152;28;20546;-73
2022/01/19 03:10:25;;;;;;;10.52;8.35;;;5.40;61.90;;;;;;5053708;28;20393;-74
2022/01/19 03:12:51;;;;;;;11.57;9.60;;;5.40;59.80;;;;;;5052837;28;20409;-74
2022/01/19 03:15:16;;;;;;;11.07;8.93;;;5.40;59.20;;;;;;5053597;28;20475;-74
2022/01/19 03:17:42;;;;;;;12.40;9.93;;;5.30;59.40;;;;;;5053248;28;20862;-74
2022/01/19 03:20:09;;;;;;;11.97;9.97;;;5.20;61.00;;;;;;5052985;28;20470;-74
2022/01/19 03:23:03;;;;;;;12.30;10.30;;;5.00;63.50;;;;;;5035938;28;20425;-74
2022/01/19 03:25:21;;;;;;;13.35;10.35;;;4.90;63.90;;;;;;5052828;28;20886;-74
2022/01/19 03:27:47;;;;;;;13.70;10.13;;;4.90;65.20;;;;;;5052864;28;20450;-74
2022/01/19 03:30:15;;;;;;;13.95;10.60;;;4.80;65.10;;;;;;5053374;28;20385;-72
2022/01/19 03:32:40;;;;;;;15.23;10.60;;;4.80;65.10;;;;;;5052607;28;20405;-73
2022/01/19 03:35:07;;;;;;;15.23;10.95;;;4.80;65.70;;;;;;5054692;28;20938;-73
2022/01/19 03:37:32;;;;;;;15.07;11.00;;;4.80;67.00;;;;;;5054544;28;20385;-74
2022/01/19 03:39:58;;;;;;;16.30;11.18;;;4.80;66.80;;;;;;5054018;28;20420;-74
2022/01/19 03:42:23;;;;;;;15.10;11.53;;;4.90;67.10;;;;;;5053258;28;20401;-75
2022/01/19 03:44:49;;;;;;;15.70;11.83;;;4.90;66.60;;;;;;5053382;28;20398;-74
2022/01/19 03:47:17;;;;;;;18.53;13.47;;;5.00;65.20;;;;;;5053442;28;20397;-75
2022/01/19 03:49:42;;;;;;;13.20;11.32;;;5.10;65.30;;;;;;5057857;28;20381;-74
2022/01/19 03:52:08;;;;;;;18.38;12.10;;;5.20;64.30;;;;;;5058438;28;20532;-74
2022/01/19 03:54:39;;;;;;;15.73;11.90;;;5.20;63.00;;;;;;5067973;28;20460;-73
2022/01/19 03:57:05;;;;;;;16.02;11.70;;;5.30;61.90;;;;;;5063858;28;20420;-73
2022/01/19 03:59:31;;;;;;;17.75;12.85;;;5.50;62.70;;;;;;5058978;28;20389;-73
2022/01/19 04:01:58;;;;;;;17.08;12.40;;;5.50;61.50;;;;;;5057791;28;20873;-73
2022/01/19 04:06:58;;;;;;;15.15;12.48;;;5.50;60.30;;;;;;5051660;28;20412;-73
2022/01/19 04:09:24;;;;;;;18.08;12.52;;;5.50;60.40;;;;;;5052073;28;20397;-73
2022/01/19 04:11:51;;;;;;;15.30;11.65;;;5.70;58.90;;;;;;5052053;28;20400;-74
2022/01/19 04:14:23;;;;;;;16.35;11.50;;;5.70;57.10;;;;;;5052435;28;20400;-74
2022/01/19 04:16:54;;;;;;;14.65;11.20;;;5.80;55.80;;;;;;5052119;28;20386;-74
2022/01/19 04:19:27;;;;;;;17.23;12.25;;;5.80;55.70;;;;;;5052438;28;20396;-74
2022/01/19 04:21:54;;;;;;;15.23;12.07;;;5.80;54.90;;;;;;5052234;28;20875;-74
2022/01/19 04:24:20;;;;;;;16.30;12.02;;;5.80;55.10;;;;;;5051690;28;21024;-72
2022/01/19 04:26:56;;;;;;;17.23;11.77;;;5.70;56.20;;;;;;5052204;28;20378;-73
2022/01/19 04:29:22;;;;;;;17.40;13.10;;;5.90;54.80;;;;;;5052129;28;20992;-73
2022/01/19 04:31:48;;;;;;;16.92;12.70;;;5.80;55.70;;;;;;5051853;28;20480;-73
2022/01/19 04:34:15;;;;;;;14.27;11.75;;;5.80;55.80;;;;;;5051948;28;20426;-74
2022/01/19 04:37:20;;;;;;;17.92;12.20;;;5.90;54.10;;;;;;5051682;28;20392;-74
2022/01/19 05:06:49;;;;;;;16.90;10.93;;;6.10;49.10;;;;;;5052028;28;20400;-74
2022/01/19 05:14:43;;;;;;;14.40;10.55;;;6.10;49.50;;;;;;5061282;28;20412;-74
2022/01/19 05:17:08;;;;;;;14.98;10.52;;;6.10;49.10;;;;;;5063412;28;20385;-74
2022/01/19 05:19:34;;;;;;;14.10;10.40;;;6.10;49.60;;;;;;5056457;28;20854;-72
2022/01/19 05:22:00;;;;;;;13.00;9.70;;;6.10;50.00;;;;;;5058407;28;20388;-72
2022/01/19 05:24:25;;;;;;;13.65;9.63;;;6.10;49.00;;;;;;5053405;28;20476;-73
2022/01/19 05:26:52;;;;;;;10.30;8.43;;;6.10;49.40;;;;;;5054163;28;20486;-75
2022/01/19 05:29:17;;;;;;;14.52;9.40;;;6.20;48.20;;;;;;5059313;28;20810;-74
2022/01/19 05:31:43;;;;;;;13.00;9.20;;;6.10;48.40;;;;;;5056982;28;20397;-75
2022/01/19 05:34:09;;;;;;;13.25;9.50;;;6.00;49.50;;;;;;5063101;28;20455;-74
2022/01/19 05:36:35;;;;;;;11.75;9.32;;;6.10;49.60;;;;;;5033846;28;20397;-74
2022/01/19 05:39:04;;;;;;;12.67;9.40;;;6.20;49.60;;;;;;5050806;28;20389;-73
2022/01/19 05:41:30;;;;;;;11.43;8.90;;;6.20;47.70;;;;;;5034171;28;20393;-74
2022/01/19 05:43:55;;;;;;;13.77;10.07;;;6.30;48.00;;;;;;5050734;28;20471;-74
2022/01/19 05:46:21;;;;;;;13.97;10.20;;;6.20;47.60;;;;;;5051034;28;20426;-73
2022/01/19 05:48:47;;;;;;;17.58;9.70;;;6.20;48.70;;;;;;5051304;28;20386;-74
2022/01/19 05:51:13;;;;;;;13.87;8.43;;;6.20;47.70;;;;;;5052037;28;20469;-73
2022/01/19 05:53:39;;;;;;;11.40;7.83;;;6.20;47.40;;;;;;5034033;28;20436;-73
2022/01/19 05:56:04;;;;;;;9.43;7.95;;;6.20;47.30;;;;;;5050911;28;20404;-74
2022/01/19 05:58:30;;;;;;;11.02;7.25;;;6.10;46.60;;;;;;5051232;28;20401;-73
2022/01/19 06:00:56;;;;;;;11.30;7.93;;;6.20;46.50;;;;;;5051511;28;20390;-74
2022/01/19 06:03:21;;;;;;;14.57;7.90;;;6.20;47.50;;;;;;5051628;28;20473;-73
2022/01/19 06:05:47;;;;;;;11.87;7.17;;;6.10;48.10;;;;;;5050860;28;20392;-73
2022/01/19 06:10:54;;;;;;;9.50;6.80;;;6.10;47.80;;;;;;5051396;28;20408;-74
2022/01/19 06:13:22;;;;;;;7.65;6.85;;;6.10;46.90;;;;;;5052562;28;20397;-74
2022/01/19 06:15:48;;;;;;;9.38;7.00;;;6.20;46.10;;;;;;5051288;28;20379;-73
2022/01/19 06:18:14;;;;;;;10.67;7.30;;;6.10;46.70;;;;;;5052383;28;20447;-73
2022/01/19 06:20:41;;;;;;;12.60;8.10;;;6.10;47.10;;;;;;5057196;28;20403;-73
2022/01/19 06:23:06;;;;;;;8.38;6.97;;;6.10;47.80;;;;;;5060672;28;20385;-73
2022/01/19 06:25:32;;;;;;;8.20;7.30;;;6.10;47.50;;;;;;5036968;28;20401;-74
2022/01/19 06:27:59;;;;;;;11.55;8.30;;;6.20;46.50;;;;;;5051771;28;20427;-72
2022/01/19 06:30:24;;;;;;;10.90;8.00;;;6.10;46.60;;;;;;5052918;28;20389;-73
2022/01/19 06:32:50;;;;;;;11.40;7.78;;;6.00;47.50;;;;;;5051638;28;20886;-74
2022/01/19 06:35:16;;;;;;;10.57;7.63;;;6.10;46.90;;;;;;5051192;28;20398;-73
2022/01/19 06:37:41;;;;;;;14.77;8.80;;;6.10;47.20;;;;;;5038968;28;20393;-74
2022/01/19 06:40:10;;;;;;;13.70;8.80;;;6.00;48.30;;;;;;5051832;28;20463;-74
2022/01/19 06:42:36;;;;;;;14.30;9.50;;;6.00;48.30;;;;;;5053225;28;20736;-74
2022/01/19 06:45:03;;;;;;;14.18;9.98;;;6.00;48.70;;;;;;5019433;28;20397;-74
2022/01/19 06:47:29;;;;;;;17.08;9.70;;;6.00;50.00;;;;;;5051751;28;20385;-73
2022/01/19 06:49:55;;;;;;;15.45;9.85;;;6.10;50.20;;;;;;5051287;28;20435;-74
2022/01/19 06:52:20;;;;;;;13.87;10.20;;;6.00;50.90;;;;;;5034523;28;20963;-74
2022/01/19 06:54:46;;;;;;;15.30;11.30;;;5.90;50.30;;;;;;5056292;28;20400;-74
2022/01/19 06:57:11;;;;;;;15.30;10.53;;;5.90;51.30;;;;;;5052770;28;20395;-73
2022/01/19 06:59:37;;;;;;;17.08;11.73;;;6.00;50.90;;;;;;5059141;28;20385;-73
2022/01/19 07:02:03;;;;;;;14.63;11.05;;;5.90;52.10;;;;;;5059765;28;20393;-73
2022/01/19 07:04:28;;;;;;;19.75;11.30;;;5.80;52.90;;;;;;5052374;28;20389;-73
2022/01/19 07:06:54;;;;;;;17.87;12.30;;;5.80;52.80;;;;;;5050632;28;20393;-73
2022/01/19 07:09:20;;;;;;;19.63;12.23;;;5.80;53.00;;;;;;5053338;28;20381;-74
2022/01/19 07:11:45;;;;;;;19.47;12.17;;;5.80;53.30;;;;;;5053958;28;20749;-74
2022/01/19 07:14:14;;;;;;;27.38;16.67;;;5.80;52.60;;;;;;5054329;28;20456;-73
2022/01/19 07:16:40;;;;;;;21.02;13.30;;;5.80;51.90;;;;;;5054202;28;20386;-73
2022/01/19 07:19:06;;;;;;;15.93;11.52;;;5.80;52.70;;;;;;5035642;28;20397;-72
2022/01/19 07:21:31;;;;;;;19.93;12.13;;;5.80;50.70;;;;;;5053673;28;20443;-73
2022/01/19 07:23:57;;;;;;;16.17;11.80;;;5.80;51.30;;;;;;5053761;28;20421;-74
2022/01/19 07:26:23;;;;;;;20.02;12.32;;;5.70;51.90;;;;;;5054392;28;20465;-73
2022/01/19 07:28:49;;;;;;;23.35;12.32;;;5.80;50.90;;;;;;5053583;28;20478;-73
2022/01/19 07:31:15;;;;;;;22.43;12.33;;;5.70;51.60;;;;;;5053579;28;20394;-74
2022/01/19 07:33:41;;;;;;;26.15;14.70;;;5.70;51.50;;;;;;5053291;28;20887;-73
2022/01/19 07:36:06;;;;;;;23.85;16.73;;;5.70;53.00;;;;;;5053881;28;20393;-75
2022/01/19 07:38:32;;;;;;;35.57;17.63;;;5.60;52.30;;;;;;5053296;28;20817;-75
2022/01/19 07:40:57;;;;;;;34.88;20.30;;;5.60;53.90;;;;;;5060444;28;20395;-74
2022/01/19 07:43:23;;;;;;;40.05;24.33;;;5.60;53.70;;;;;;5053410;28;20859;-74
2022/01/19 07:45:49;;;;;;;36.75;20.75;;;5.70;53.70;;;;;;5053720;28;20459;-75
2022/01/19 07:48:15;;;;;;;33.70;19.67;;;5.80;52.30;;;;;;5053725;28;20468;-74
2022/01/19 07:50:41;;;;;;;31.70;19.88;;;5.80;50.90;;;;;;5055759;28;21007;-74
2022/01/19 07:53:07;;;;;;;33.40;19.02;;;5.70;51.40;;;;;;5059102;28;20508;-77
2022/01/19 07:55:33;;;;;;;37.83;20.30;;;5.70;52.20;;;;;;5039967;28;20384;-74
2022/01/19 07:57:58;;;;;;;33.20;19.85;;;5.70;50.80;;;;;;5049593;28;20484;-76
2022/01/19 08:00:24;;;;;;;34.25;19.27;;;5.70;50.10;;;;;;5051218;28;20902;-73
2022/01/19 08:02:50;;;;;;;26.88;17.23;;;5.80;49.70;;;;;;5033189;28;20510;-75
2022/01/19 08:05:17;;;;;;;28.80;17.33;;;5.80;48.20;;;;;;5051166;28;20405;-74
2022/01/19 08:07:43;;;;;;;22.95;15.90;;;5.80;48.80;;;;;;5035906;28;20419;-75
2022/01/19 08:10:10;;;;;;;23.27;16.50;;;5.90;48.50;;;;;;5049901;28;20883;-76
2022/01/19 08:12:37;;;;;;;25.83;16.40;;;5.80;49.60;;;;;;5052278;28;20439;-74
2022/01/19 08:15:04;;;;;;;24.77;17.08;;;5.80;48.20;;;;;;5032424;28;20417;-73
2022/01/19 08:17:30;;;;;;;25.02;17.10;;;5.80;48.40;;;;;;5050123;28;20866;-75
2022/01/19 08:19:56;;;;;;;25.25;16.10;;;5.80;47.40;;;;;;5061609;28;20470;-76
2022/01/19 08:22:23;;;;;;;25.60;15.65;;;5.90;46.80;;;;;;5053825;28;20401;-74
2022/01/19 08:24:48;;;;;;;23.65;16.00;;;5.90;45.70;;;;;;5054655;28;20408;-76
2022/01/19 08:27:14;;;;;;;23.80;14.90;;;5.90;46.30;;;;;;5051267;28;20405;-75
2022/01/19 08:29:40;;;;;;;21.65;15.75;;;5.90;46.50;;;;;;5035082;28;20898;-74
2022/01/19 08:32:06;;;;;;;23.30;15.00;;;6.00;45.70;;;;;;5050383;28;20495;-73
2022/01/19 08:34:32;;;;;;;22.50;15.00;;;5.90;46.30;;;;;;5052151;28;20393;-73
2022/01/19 08:36:59;;;;;;;20.87;14.17;;;6.00;45.90;;;;;;5055639;28;20498;-73
2022/01/19 08:39:25;;;;;;;20.52;14.75;;;5.90;45.70;;;;;;5054799;28;20393;-73
2022/01/19 08:41:52;;;;;;;21.47;14.83;;;5.80;46.30;;;;;;5052401;28;20499;-74
2022/01/19 08:44:18;;;;;;;20.20;14.25;;;6.00;46.50;;;;;;5051433;28;20480;-73
2022/01/19 08:46:44;;;;;;;21.53;14.90;;;6.00;45.40;;;;;;5052838;28;20971;-72
2022/01/19 08:49:10;;;;;;;24.67;14.87;;;6.00;45.10;;;;;;5051749;28;20393;-74
2022/01/19 08:51:39;;;;;;;20.05;14.07;;;6.00;45.30;;;;;;5050728;28;20431;-78
2022/01/19 08:54:05;;;;;;;20.33;14.45;;;6.00;44.70;;;;;;5052467;28;20489;-73
2022/01/19 08:56:31;;;;;;;21.75;14.70;;;6.00;45.20;;;;;;5033717;28;20834;-73
2022/01/19 08:58:56;;;;;;;21.20;14.60;;;5.90;45.70;;;;;;5057865;28;20465;-73
2022/01/19 09:01:23;;;;;;;25.95;14.63;;;5.90;45.30;;;;;;5033831;28;20762;-75
2022/01/19 09:03:49;;;;;;;24.37;14.67;;;5.90;46.10;;;;;;5049267;28;20747;-75
2022/01/19 09:06:14;;;;;;;35.28;16.98;;;6.00;45.40;;;;;;5050499;28;20396;-73
2022/01/19 09:08:40;;;;;;;25.07;15.30;;;6.00;46.40;;;;;;5050370;28;20405;-73
2022/01/19 09:11:06;;;;;;;23.50;15.57;;;6.00;46.50;;;;;;5033233;28;20472;-73
2022/01/19 09:13:32;;;;;;;24.95;15.93;;;6.00;45.30;;;;;;5034429;28;20455;-73
2022/01/19 09:15:58;;;;;;;27.40;16.60;;;6.00;46.50;;;;;;5052174;28;20661;-75
2022/01/19 09:18:24;;;;;;;26.88;16.90;;;6.10;45.60;;;;;;5048553;28;20405;-75
2022/01/19 09:20:50;;;;;;;28.27;16.27;;;6.10;45.30;;;;;;5050986;28;20827;-74
2022/01/19 09:23:15;;;;;;;30.03;16.83;;;6.20;45.80;;;;;;5052279;28;20437;-74
2022/01/19 09:25:41;;;;;;;28.65;16.40;;;6.20;44.70;;;;;;5033225;28;20917;-73
2022/01/19 09:28:08;;;;;;;24.58;15.38;;;6.20;45.10;;;;;;5051180;28;20429;-73
2022/01/19 09:30:35;;;;;;;22.63;14.70;;;6.20;45.30;;;;;;5054166;28;20450;-73
2022/01/19 09:33:09;;;;;;;22.35;14.57;;;6.20;44.60;;;;;;5048569;28;20805;-76
2022/01/19 09:38:36;;;;;;;24.83;16.58;;;6.30;44.60;;;;;;5023674;28;20394;-75
2022/01/19 09:41:03;;;;;;;26.35;15.40;;;6.30;44.50;;;;;;5051686;28;20397;-75
2022/01/19 09:43:29;;;;;;;24.35;15.88;;;6.30;44.70;;;;;;5051589;28;20759;-74
2022/01/19 09:45:58;;;;;;;26.23;16.50;;;6.20;44.70;;;;;;5034948;28;20405;-75
2022/01/19 09:48:25;;;;;;;25.38;16.73;;;6.20;44.20;;;;;;5051327;28;20897;-74
2022/01/19 09:50:54;;;;;;;22.70;15.55;;;6.30;44.10;;;;;;5053475;28;20416;-76
2022/01/19 09:53:20;;;;;;;22.65;15.95;;;6.20;43.80;;;;;;5054504;28;20770;-75
2022/01/19 09:55:46;;;;;;;23.10;14.30;;;6.20;43.90;;;;;;5057827;28;20409;-74
2022/01/19 09:58:12;;;;;;;26.98;15.68;;;6.20;43.70;;;;;;5060703;28;20480;-74
2022/01/19 10:00:38;;;;;;;25.57;15.50;;;6.20;43.60;;;;;;5059116;28;20425;-74
2022/01/19 10:03:23;;;;;;;27.45;15.93;;;6.20;44.30;;;;;;5056394;28;20405;-73
2022/01/19 10:05:57;;;;;;;23.05;15.02;;;6.20;44.70;;;;;;5053081;28;20758;-74
2022/01/19 10:08:40;;;;;;;25.13;16.40;;;6.20;44.80;;;;;;5051650;28;20389;-73
2022/01/19 10:11:17;;;;;;;27.65;16.10;;;6.20;44.90;;;;;;5051807;28;20389;-74
2022/01/19 10:19:32;;;;;;;26.92;16.13;;;6.40;44.10;;;;;;5053964;28;20387;-73
2022/01/19 10:22:06;;;;;;;23.77;15.20;;;6.30;43.70;;;;;;5050764;28;20455;-74
2022/01/19 10:24:41;;;;;;;33.13;16.70;;;6.40;43.00;;;;;;5051319;28;20392;-73
2022/01/19 10:27:20;;;;;;;31.00;15.68;;;6.50;42.70;;;;;;5050163;28;20395;-73
2022/01/19 10:29:47;;;;;;;23.80;14.73;;;6.50;41.60;;;;;;5060298;28;20385;-73
2022/01/19 10:32:14;;;;;;;29.08;16.20;;;6.60;41.30;;;;;;5070715;28;20453;-73
2022/01/19 10:34:40;;;;;;;28.20;16.17;;;6.60;42.00;;;;;;5070102;28;20818;-75
2022/01/19 10:37:05;;;;;;;22.35;15.10;;;6.60;42.00;;;;;;5052322;28;20829;-74
2022/01/19 10:40:00;;;;;;;26.23;16.30;;;6.60;41.40;;;;;;5050827;28;20467;-72
2022/01/19 10:42:27;;;;;;;27.70;16.42;;;6.60;42.30;;;;;;5050515;28;20402;-73
2022/01/19 10:45:00;;;;;;;24.52;15.38;;;6.70;41.50;;;;;;5053783;28;20409;-74
2022/01/19 10:47:50;;;;;;;21.05;15.27;;;6.90;40.50;;;;;;5051857;28;20748;-74
2022/01/19 10:50:28;;;;;;;26.52;17.38;;;7.00;39.80;;;;;;5052944;28;20842;-74
2022/01/19 10:52:56;;;;;;;28.50;17.17;;;6.90;39.90;;;;;;5053285;28;20436;-74
2022/01/19 10:55:29;;;;;;;25.60;16.80;;;6.90;40.80;;;;;;5054255;28;20377;-74
2022/01/19 10:57:56;;;;;;;28.17;16.27;;;6.90;40.50;;;;;;5054763;28;20441;-74
2022/01/19 11:00:28;;;;;;;30.55;16.27;;;7.10;39.80;;;;;;5054694;28;20393;-74
2022/01/19 11:02:58;;;;;;;31.23;17.10;;;7.00;39.30;;;;;;5054819;28;20388;-73
2022/01/19 11:05:47;;;;;;;25.80;16.40;;;7.00;38.90;;;;;;5054575;28;20872;-73
2022/01/19 11:08:14;;;;;;;26.92;16.83;;;7.00;39.50;;;;;;5053194;28;20767;-74
2022/01/19 11:10:40;;;;;;;27.63;17.15;;;7.00;39.20;;;;;;5054754;28;20917;-73
2022/01/19 11:13:13;;;;;;;27.40;16.13;;;7.10;39.70;;;;;;5053744;28;20520;-73
2022/01/19 11:15:39;;;;;;;23.87;16.60;;;7.10;39.20;;;;;;5054066;28;20463;-74
2022/01/19 11:18:05;;;;;;;22.20;16.05;;;7.10;38.50;;;;;;5053620;28;20389;-74
2022/01/19 11:20:39;;;;;;;23.40;15.30;;;7.10;38.40;;;;;;5053168;28;20402;-74
2022/01/19 11:23:18;;;;;;;23.30;15.60;;;7.10;38.60;;;;;;5053636;28;20813;-75
2022/01/19 11:26:04;;;;;;;24.47;16.00;;;7.10;38.70;;;;;;5035446;28;20486;-74
2022/01/19 11:28:39;;;;;;;24.02;15.52;;;7.10;39.10;;;;;;5053152;28;20443;-74
2022/01/19 11:31:09;;;;;;;23.20;15.60;;;7.10;38.30;;;;;;5052822;28;20874;-75
2022/01/19 11:33:47;;;;;;;23.35;15.80;;;7.00;38.80;;;;;;5049204;28;20490;-74
2022/01/19 11:36:25;;;;;;;21.48;15.45;;;7.00;38.70;;;;;;5053663;28;20392;-75
2022/01/19 11:39:14;;;;;;;22.15;15.30;;;7.00;39.10;;;;;;5060440;28;20401;-73
2022/01/19 11:41:47;;;;;;;26.83;16.75;;;6.90;39.30;;;;;;5050420;28;20405;-73
2022/01/19 11:44:33;;;;;;;28.45;16.70;;;6.80;40.00;;;;;;5046975;28;20491;-74
2022/01/19 11:47:21;;;;;;;25.15;16.40;;;6.80;39.70;;;;;;5050138;28;20461;-74
2022/01/19 11:49:56;;;;;;;24.60;16.48;;;6.90;39.60;;;;;;5059969;28;20400;-75
2022/01/19 11:52:52;;;;;;;24.52;16.40;;;6.80;39.60;;;;;;5080555;28;20412;-73
2022/01/19 11:55:25;;;;;;;22.23;15.85;;;6.80;39.90;;;;;;5052874;28;20389;-72
2022/01/19 11:58:10;;;;;;;31.52;17.27;;;6.70;39.60;;;;;;5038897;28;20434;-73
2022/01/19 12:00:36;;;;;;;21.85;15.85;;;6.80;40.50;;;;;;5054501;28;20848;-74
2022/01/19 12:03:21;;;;;;;28.80;16.08;;;6.80;39.80;;;;;;5053634;28;20484;-74
2022/01/19 12:05:50;;;;;;;24.38;16.10;;;6.90;39.40;;;;;;5053176;28;20393;-74
2022/01/19 12:08:29;;;;;;;23.35;16.20;;;6.80;39.30;;;;;;5054203;28;20404;-73
2022/01/19 12:11:16;;;;;;;24.08;16.58;;;6.90;38.80;;;;;;5053330;28;20401;-72
2022/01/19 12:16:25;;;;;;;25.90;16.35;;;6.70;40.00;;;;;;5057998;28;20394;-74
2022/01/19 12:19:00;;;;;;;24.30;16.27;;;6.70;39.80;;;;;;5057119;28;20441;-74
2022/01/19 12:21:32;;;;;;;25.58;16.63;;;6.60;39.70;;;;;;5052608;28;20424;-73
2022/01/19 12:24:24;;;;;;;25.63;17.08;;;6.60;40.10;;;;;;5054137;28;20413;-77
2022/01/19 12:27:04;;;;;;;28.08;16.00;;;6.60;41.00;;;;;;5058029;28;20475;-75
2022/01/19 12:29:33;;;;;;;27.13;17.70;;;6.60;41.10;;;;;;5063243;28;20466;-76
2022/01/19 12:32:20;;;;;;;27.83;17.40;;;6.70;40.90;;;;;;5067861;28;20392;-78
2022/01/19 12:34:49;;;;;;;25.75;16.67;;;6.80;39.90;;;;;;5008214;28;20925;-77
2022/01/19 12:37:42;;;;;;;26.00;17.27;;;6.80;40.80;;;;;;5040154;28;20884;-76
2022/01/19 12:40:35;;;;;;;24.80;16.73;;;6.90;39.80;;;;;;5056510;28;20412;-77
2022/01/19 12:43:05;;;;;;;26.65;17.70;;;6.90;40.30;;;;;;5043381;28;20401;-75
2022/01/19 12:45:35;;;;;;;30.63;17.23;;;6.80;40.20;;;;;;5054627;28;20412;-77
2022/01/19 12:48:11;;;;;;;25.30;17.88;;;6.80;40.60;;;;;;5052813;28;20412;-75
2022/01/19 12:50:46;;;;;;;29.15;18.65;;;6.80;40.60;;;;;;5043459;28;20409;-75
2022/01/19 12:53:21;;;;;;;29.15;17.65;;;6.80;40.80;;;;;;5049427;28;20416;-74
2022/01/19 12:55:52;;;;;;;27.47;17.80;;;6.80;40.50;;;;;;5059853;28;20452;-75
2022/01/19 12:58:29;;;;;;;28.73;18.38;;;6.80;40.90;;;;;;5061364;28;20388;-75
2022/01/19 13:01:01;;;;;;;27.88;18.10;;;6.80;41.40;;;;;;5053877;28;20458;-76
2022/01/19 13:03:31;;;;;;;34.33;20.40;;;6.80;41.20;;;;;;5057039;28;20387;-75
2022/01/19 13:06:02;;;;;;;28.80;19.23;;;6.70;42.10;;;;;;5062379;28;20394;-74
2022/01/19 13:08:43;;;;;;;29.80;18.70;;;6.80;41.80;;;;;;5051424;28;20491;-74
2022/01/19 13:11:22;;;;;;;30.65;18.95;;;6.70;43.20;;;;;;5052716;28;20386;-74
2022/01/19 13:13:52;;;;;;;31.17;20.55;;;6.80;42.90;;;;;;5049194;28;20923;-76
2022/01/19 13:16:45;;;;;;;29.20;19.33;;;6.80;43.10;;;;;;5052632;28;20442;-74
2022/01/19 13:19:20;;;;;;;30.17;20.48;;;6.80;42.10;;;;;;5053356;28;20397;-77
2022/01/19 13:22:02;;;;;;;31.60;19.35;;;6.90;41.60;;;;;;5057477;28;20480;-75
2022/01/19 13:24:31;;;;;;;31.08;19.67;;;6.80;42.40;;;;;;5053156;28;20499;-77
2022/01/19 13:27:03;;;;;;;36.72;20.60;;;6.80;42.80;;;;;;5055218;28;20416;-75
2022/01/19 13:29:37;;;;;;;32.77;19.70;;;6.70;42.70;;;;;;5046175;28;20478;-74
2022/01/19 13:32:06;;;;;;;30.40;19.67;;;6.70;44.10;;;;;;5045093;28;20409;-72
2022/01/19 13:34:48;;;;;;;31.45;20.67;;;6.80;42.40;;;;;;5053663;28;20397;-73
2022/01/19 13:37:16;;;;;;;28.55;19.88;;;6.70;44.00;;;;;;5051220;28;20495;-73
2022/01/19 13:39:42;;;;;;;31.75;19.98;;;6.70;45.30;;;;;;5051600;28;20488;-73
2022/01/19 13:42:08;;;;;;;33.27;20.50;;;6.50;45.30;;;;;;5051056;28;20429;-73
2022/01/19 13:44:36;;;;;;;32.13;20.52;;;6.60;46.30;;;;;;5049878;28;20405;-74
2022/01/19 13:47:14;;;;;;;33.23;20.93;;;6.50;46.60;;;;;;5050543;28;20476;-74
2022/01/19 13:49:40;;;;;;;35.67;21.17;;;6.50;47.20;;;;;;5044076;28;20420;-72
2022/01/19 13:52:09;;;;;;;31.27;19.83;;;6.50;47.50;;;;;;5048653;28;20480;-74
2022/01/19 13:54:37;;;;;;;33.95;20.88;;;6.40;48.60;;;;;;5048398;28;20391;-73
2022/01/19 13:57:03;;;;;;;34.90;19.73;;;6.40;49.10;;;;;;5049632;28;20392;-72
2022/01/19 13:59:29;;;;;;;32.08;21.20;;;6.40;48.60;;;;;;5050809;28;20885;-73
2022/01/19 14:02:00;;;;;;;37.63;21.50;;;6.50;48.80;;;;;;5051896;28;20439;-73
2022/01/19 14:04:28;;;;;;;36.13;21.75;;;6.50;49.10;;;;;;5051873;28;20485;-72
2022/01/19 14:07:03;;;;;;;38.67;21.40;;;6.40;50.30;;;;;;5051701;28;20451;-74
2022/01/19 14:09:31;;;;;;;39.33;21.83;;;6.40;50.80;;;;;;5051992;28;20393;-75
2022/01/19 14:11:57;;;;;;;38.40;22.27;;;6.40;50.90;;;;;;5053524;28;20415;-73
2022/01/19 14:14:25;;;;;;;36.30;21.73;;;6.40;51.60;;;;;;5052173;28;20494;-73
2022/01/19 14:16:53;;;;;;;39.40;22.35;;;6.50;50.70;;;;;;5053263;28;20481;-73
2022/01/19 14:19:21;;;;;;;37.88;22.02;;;6.50;51.70;;;;;;5054360;28;20383;-75
2022/01/19 14:22:13;;;;;;;35.47;22.20;;;6.40;52.40;;;;;;5055150;28;20484;-75
2022/01/19 14:24:44;;;;;;;39.05;22.55;;;6.40;54.40;;;;;;5048147;28;20577;-74
2022/01/19 14:27:24;;;;;;;40.33;22.75;;;6.30;54.90;;;;;;5054343;28;20396;-74